Oelwein, IA (50662)

04:35 CDT le 22 octobre 2014 (GMT -0500)
Maplewood Dr | Change Station
CLOSE
Current Station
Stations météorologiques personnelles
Location: Oelwein, IA
Altitude: 1135 ft
Stations météo à proximité

Alt. 1135 ft 42.69 °N, 91.91 °W | Updated 11 seconds ago

Ciel dégagé
Ciel dégagé
38.9 ° F
Paraît 39 ° F
N
2.7
Vent Variable Vent de SE
Gusts 5.1 mph

Aujourd'hui
Haut(e) -- | Bas -- ° F
--% Risque de précip.
Hier
Haut(e) -- | Bas -- ° F
Precip. -- pouce
7:29 AM 6:14 PM
Lune descendante, 2% visible
Pression 30.26 pouce
Visibilité 10.0 Miles terrestres
Nuages Ciel dégagé
Refroidissement éolien 39 ° F
Point de rosée 35 ° F
Humidité 85%
Précipitations 0.00 pouce
Profondeur de la couche neigeuse Non disponible.
UV 0 sur 12
Pollen 1.20 sur 12
Qualité de l'air Non disponible.
Flu Activity Sporadic
METAR KOLZ 220915Z AUTO 13009KT 10SM CLR 03/02 A3026 RMK AO2

More Conditions Fewer Conditions

Pression 30.26 pouce
Visibilité 10.0 Miles terrestres
Nuages Ciel dégagé
Refroidissement éolien 39 ° F
Point de rosée 35 ° F
Humidité 85%
Précipitations 0.00 pouce
Profondeur de la couche neigeuse Non disponible.
UV 0 sur 12
Pollen 1.20 sur 12
Qualité de l'air Non disponible.
Flu Activity Sporadic
METAR KOLZ 220915Z AUTO 13009KT 10SM CLR 03/02 A3026 RMK AO2

More Conditions Fewer Conditions

10-Day Weather Forecast

Almanac

Astronomie

Oct. 22, 2014 Lever Coucher
Temps réel 07:29 CDT 18:14 CDT
Crépuscule civil 07:00 CDT 18:43 CDT
Crépuscule nautique 06:27 CDT 19:15 CDT
Crépuscule astronomique 05:54 CDT 19:48 CDT
Lune 06:09 CDT 17:42 CDT
Durée de lumière visible 11h 42m
Longueur du jour
10h 45m
Tomorrow will be 2m 43s shorter.
Lune descendante, 2% of the Moon is Illuminated
Aujourd'hui
Lune descendante
Oct 23
Nouveau
Oct 30
Premier quartier
Nov 6
Pleine lune
Nov 14
Dernier quartier

Extrêmes aujourd'hui

State Highs State Lows

Community

WunderPhotos

Upload Photos

1,763,900 Photos téléchargées !

Nearby

Épaisseur de neige

Station Depth Altitude
Pas de nouvelles chutes de neige

Activité sismique

Ville Distance Mag. Time & Date
No recent earthquake activity has been reported nearby.
Minimum magnitude displayed is 2.5.

Températures des eaux côtières

Lieu Température
Aucun rapport de station

Stations météo à proximité